createdAt,value
2022-12-11T00:00:49.388Z,64.85
2022-12-11T00:03:19.003Z,64.89
2022-12-11T00:05:46.141Z,64.77
2022-12-11T00:08:13.327Z,65.02
2022-12-11T00:10:40.075Z,64.74
2022-12-11T00:13:06.635Z,64.99
2022-12-11T00:15:33.263Z,64.93
2022-12-11T00:17:59.927Z,64.82
2022-12-11T00:20:27.253Z,64.74
2022-12-11T00:22:53.863Z,64.71
2022-12-11T00:25:20.386Z,64.66
2022-12-11T00:27:47.438Z,64.70
2022-12-11T00:30:14.957Z,64.59
2022-12-11T00:32:41.706Z,64.51
2022-12-11T00:35:09.090Z,64.55
2022-12-11T00:37:35.920Z,64.57
2022-12-11T00:40:02.580Z,64.69
2022-12-11T00:42:29.183Z,64.50
2022-12-11T00:44:56.450Z,64.29
2022-12-11T00:47:23.018Z,64.32
2022-12-11T00:49:50.096Z,63.63
2022-12-11T00:52:17.926Z,63.84
2022-12-11T00:54:45.129Z,63.41
2022-12-11T00:57:11.765Z,63.21
2022-12-11T00:59:38.605Z,63.25
2022-12-11T01:02:05.158Z,63.05
2022-12-11T01:04:31.668Z,62.95
2022-12-11T01:06:58.230Z,62.77
2022-12-11T01:09:43.361Z,62.59
2022-12-11T01:12:09.921Z,62.73
2022-12-11T01:14:36.593Z,62.66
2022-12-11T01:17:03.272Z,62.54
2022-12-11T01:19:29.897Z,62.67
2022-12-11T01:21:56.463Z,62.51
2022-12-11T01:24:23.053Z,62.54
2022-12-11T01:26:49.565Z,62.48
2022-12-11T01:29:16.101Z,62.52
2022-12-11T01:31:42.692Z,62.34
2022-12-11T01:34:09.275Z,62.33
2022-12-11T01:36:35.877Z,62.33
2022-12-11T01:39:02.427Z,62.24
2022-12-11T01:41:29.023Z,61.94
2022-12-11T01:44:21.863Z,61.80
2022-12-11T01:46:48.330Z,61.64
2022-12-11T01:49:17.451Z,61.63
2022-12-11T01:51:52.052Z,61.65
2022-12-11T01:54:21.063Z,61.50
2022-12-11T01:56:48.803Z,61.64
2022-12-11T01:59:18.347Z,61.54
2022-12-11T02:01:47.776Z,61.54
2022-12-11T02:04:15.484Z,61.70
2022-12-11T02:06:47.625Z,61.55
2022-12-11T02:09:17.818Z,61.74
2022-12-11T02:11:53.221Z,61.95
2022-12-11T02:14:31.163Z,62.10
2022-12-11T02:17:35.680Z,62.07
2022-12-11T02:20:18.819Z,61.90
2022-12-11T02:23:07.461Z,61.78
2022-12-11T02:26:04.755Z,61.85
2022-12-11T02:28:35.188Z,61.68
2022-12-11T02:31:12.438Z,61.37
2022-12-11T02:33:44.426Z,61.33
2022-12-11T02:36:11.977Z,61.33
2022-12-11T02:38:41.779Z,61.04
2022-12-11T02:41:09.656Z,61.00
2022-12-11T02:43:37.316Z,61.00
2022-12-11T02:46:04.906Z,61.16
2022-12-11T02:48:32.511Z,61.19
2022-12-11T02:51:00.423Z,61.31
2022-12-11T02:53:29.604Z,61.40
2022-12-11T02:56:06.232Z,61.49
2022-12-11T02:58:33.302Z,61.29
2022-12-11T03:01:00.059Z,61.27
2022-12-11T03:03:28.903Z,61.16
2022-12-11T03:05:55.796Z,60.95
2022-12-11T03:08:22.390Z,61.22
2022-12-11T03:10:49.102Z,60.89
2022-12-11T03:13:18.695Z,60.96
2022-12-11T03:15:55.880Z,60.84
2022-12-11T03:18:41.839Z,60.96
2022-12-11T03:21:16.938Z,60.88
2022-12-11T03:23:56.674Z,60.93
2022-12-11T03:26:24.220Z,60.93
2022-12-11T03:29:02.417Z,60.52
2022-12-11T03:31:37.890Z,60.60
2022-12-11T03:34:13.282Z,60.59
2022-12-11T03:36:40.115Z,60.57
2022-12-11T03:39:11.026Z,60.76
2022-12-11T03:41:38.696Z,60.94
2022-12-11T03:44:05.452Z,60.88
2022-12-11T03:46:35.443Z,60.98
2022-12-11T03:49:06.648Z,60.90
2022-12-11T03:51:34.357Z,60.97
2022-12-11T03:54:01.223Z,60.68
2022-12-11T03:56:29.002Z,60.92
2022-12-11T03:58:55.743Z,60.72
2022-12-11T04:01:22.308Z,60.72
2022-12-11T04:03:48.831Z,60.59
2022-12-11T04:06:15.449Z,60.62
2022-12-11T04:08:42.009Z,60.36
2022-12-11T04:11:27.229Z,60.46
2022-12-11T04:14:12.203Z,60.30
2022-12-11T04:16:38.775Z,60.46
2022-12-11T04:19:24.396Z,60.26
2022-12-11T04:22:09.892Z,60.16
2022-12-11T04:24:36.523Z,60.08
2022-12-11T04:27:03.174Z,59.87
2022-12-11T04:29:29.823Z,59.94
2022-12-11T04:31:56.368Z,60.16
2022-12-11T04:34:23.082Z,59.91
2022-12-11T04:36:50.097Z,60.25
2022-12-11T04:39:16.807Z,60.17
2022-12-11T04:41:43.482Z,60.00
2022-12-11T04:44:10.018Z,59.72
2022-12-11T04:46:36.541Z,59.93
2022-12-11T04:49:03.167Z,59.94
2022-12-11T04:51:29.924Z,59.70
2022-12-11T04:53:56.547Z,59.62
2022-12-11T04:56:23.171Z,59.51
2022-12-11T04:58:49.668Z,59.48
2022-12-11T05:01:20.106Z,59.34
2022-12-11T05:03:47.320Z,59.13
2022-12-11T05:06:14.480Z,59.04
2022-12-11T05:08:42.196Z,58.96
2022-12-11T05:11:14.818Z,58.79
2022-12-11T05:13:41.843Z,58.56
2022-12-11T05:16:10.077Z,58.29
2022-12-11T05:18:36.722Z,58.36
2022-12-11T05:21:08.878Z,58.13
2022-12-11T05:23:35.846Z,57.90
2022-12-11T05:26:21.845Z,57.96
2022-12-11T05:28:53.324Z,57.88
2022-12-11T05:31:22.379Z,57.88
2022-12-11T05:33:50.350Z,58.13
2022-12-11T05:36:20.894Z,58.23
2022-12-11T05:38:47.944Z,58.34
2022-12-11T05:41:16.995Z,58.01
2022-12-11T05:43:43.910Z,57.83
2022-12-11T05:46:13.557Z,57.98
2022-12-11T05:48:41.430Z,57.66
2022-12-11T05:51:08.652Z,57.75
2022-12-11T05:53:39.364Z,57.49
2022-12-11T05:56:08.379Z,57.20
2022-12-11T05:58:35.420Z,57.15
2022-12-11T06:01:02.732Z,57.36
2022-12-11T06:03:29.337Z,57.12
2022-12-11T06:05:55.878Z,56.87
2022-12-11T06:08:22.570Z,57.08
2022-12-11T06:10:50.313Z,56.60
2022-12-11T06:13:17.067Z,56.45
2022-12-11T06:15:43.562Z,56.39
2022-12-11T06:18:10.750Z,56.30
2022-12-11T06:20:37.607Z,55.99
2022-12-11T06:23:04.835Z,56.18
2022-12-11T06:25:31.511Z,56.19
2022-12-11T06:27:58.405Z,56.13
2022-12-11T06:30:39.115Z,56.01
2022-12-11T06:33:06.556Z,56.10
2022-12-11T06:35:36.300Z,56.01
2022-12-11T06:38:06.708Z,55.91
2022-12-11T06:40:33.223Z,55.48
2022-12-11T06:42:59.719Z,54.92
2022-12-11T06:45:26.370Z,54.40
2022-12-11T06:47:52.927Z,54.02
2022-12-11T06:50:19.800Z,53.37
2022-12-11T06:52:46.346Z,53.16
2022-12-11T06:55:13.378Z,52.78
2022-12-11T06:57:40.274Z,51.62
2022-12-11T07:00:07.536Z,51.72
2022-12-11T07:05:42.626Z,51.53
2022-12-11T07:08:09.245Z,51.40
2022-12-11T07:10:35.874Z,51.53
2022-12-11T07:13:02.596Z,51.39
2022-12-11T07:15:29.212Z,51.51
2022-12-11T07:17:55.756Z,51.18
2022-12-11T07:20:22.518Z,51.17
2022-12-11T07:22:49.131Z,50.95
2022-12-11T07:25:15.800Z,51.18
2022-12-11T07:27:42.446Z,51.15
2022-12-11T07:30:10.748Z,50.89
2022-12-11T07:32:37.607Z,50.66
2022-12-11T07:35:04.637Z,50.49
2022-12-11T07:37:31.216Z,50.67
2022-12-11T07:39:57.775Z,50.83
2022-12-11T07:42:24.296Z,50.69
2022-12-11T07:44:50.914Z,50.72
2022-12-11T07:47:19.079Z,50.64
2022-12-11T07:49:45.592Z,50.36
2022-12-11T07:52:12.124Z,50.26
2022-12-11T07:54:38.778Z,50.25
2022-12-11T07:57:12.239Z,50.13
2022-12-11T07:59:41.701Z,50.10
2022-12-11T08:02:13.916Z,49.24
2022-12-11T08:04:40.550Z,49.36
2022-12-11T08:07:07.163Z,48.79
2022-12-11T08:09:33.701Z,48.40
2022-12-11T08:12:00.296Z,48.24
2022-12-11T08:14:26.940Z,47.90
2022-12-11T08:16:53.774Z,47.95
2022-12-11T08:19:20.434Z,47.99
2022-12-11T08:21:47.182Z,47.76
2022-12-11T08:24:16.371Z,47.54
2022-12-11T08:26:42.875Z,47.10
2022-12-11T08:29:10.978Z,46.96
2022-12-11T08:31:37.779Z,46.86
2022-12-11T08:34:04.868Z,47.00
2022-12-11T08:36:31.523Z,46.82
2022-12-11T08:38:58.403Z,46.69
2022-12-11T08:41:36.706Z,46.03
2022-12-11T08:44:06.117Z,46.11
2022-12-11T08:46:33.682Z,46.25
2022-12-11T08:49:00.552Z,46.21
2022-12-11T08:51:30.408Z,45.90
2022-12-11T08:54:01.654Z,45.66
2022-12-11T08:56:29.219Z,45.71
2022-12-11T08:58:56.045Z,45.34
2022-12-11T09:01:25.161Z,44.96
2022-12-11T09:03:53.062Z,45.18
2022-12-11T09:06:21.712Z,45.18
2022-12-11T09:08:52.681Z,44.95
2022-12-11T09:11:29.012Z,45.05
2022-12-11T09:13:55.711Z,44.79
2022-12-11T09:16:24.810Z,44.76
2022-12-11T09:18:53.527Z,44.24
2022-12-11T09:21:22.490Z,44.12
2022-12-11T09:23:49.815Z,44.08
2022-12-11T09:26:18.483Z,44.05
2022-12-11T09:28:46.843Z,44.04
2022-12-11T09:31:18.694Z,44.00
2022-12-11T09:33:46.057Z,44.17
2022-12-11T09:36:12.882Z,43.69
2022-12-11T09:38:39.786Z,43.60
2022-12-11T09:41:23.132Z,43.17
2022-12-11T09:44:13.558Z,42.95
2022-12-11T09:46:40.997Z,43.15
2022-12-11T09:49:29.330Z,42.81
2022-12-11T09:52:34.417Z,42.30
2022-12-11T09:55:13.695Z,41.99
2022-12-11T09:58:00.224Z,41.83
2022-12-11T10:00:32.644Z,41.39
2022-12-11T10:03:08.844Z,41.25
2022-12-11T10:05:59.665Z,41.57
2022-12-11T10:08:32.040Z,41.57
2022-12-11T10:11:07.617Z,41.40
2022-12-11T10:14:02.024Z,40.88
2022-12-11T10:16:57.962Z,41.28
2022-12-11T10:19:30.508Z,41.23
2022-12-11T10:21:57.984Z,41.20
2022-12-11T10:27:34.263Z,41.57
2022-12-11T10:30:13.175Z,41.06
2022-12-11T10:33:03.002Z,41.11
2022-12-11T10:35:44.803Z,41.02
2022-12-11T10:38:16.019Z,41.43
2022-12-11T10:40:49.640Z,41.19
2022-12-11T10:43:16.242Z,41.01
2022-12-11T10:45:54.213Z,40.24
2022-12-11T10:48:21.356Z,40.09
2022-12-11T10:50:57.457Z,40.13
2022-12-11T10:53:24.343Z,39.83
2022-12-11T10:55:50.848Z,40.04
2022-12-11T10:58:20.261Z,39.77
2022-12-11T11:00:49.555Z,39.53
2022-12-11T11:03:35.888Z,39.09
2022-12-11T11:06:06.132Z,39.17
2022-12-11T11:08:44.578Z,38.78
2022-12-11T11:11:27.148Z,38.55
2022-12-11T11:14:10.711Z,38.66
2022-12-11T11:16:38.924Z,38.69
2022-12-11T11:19:06.130Z,38.71
2022-12-11T11:21:34.650Z,38.73
2022-12-11T11:24:01.323Z,38.93
2022-12-11T11:27:04.415Z,38.45
2022-12-11T11:29:32.990Z,38.62
2022-12-11T11:32:15.942Z,38.75
2022-12-11T11:34:44.132Z,38.98
2022-12-11T11:37:31.506Z,38.83
2022-12-11T11:40:04.393Z,38.82
2022-12-11T11:42:44.141Z,39.03
2022-12-11T11:45:16.940Z,39.00
2022-12-11T11:47:51.483Z,39.23
2022-12-11T11:50:20.590Z,39.38
2022-12-11T11:52:56.157Z,39.37
2022-12-11T11:55:47.044Z,39.54
2022-12-11T11:58:22.783Z,39.44
2022-12-11T12:00:49.736Z,39.61
2022-12-11T12:03:18.493Z,39.62
2022-12-11T12:05:54.998Z,39.97
2022-12-11T12:08:27.216Z,39.65
2022-12-11T12:11:15.646Z,39.57
2022-12-11T12:13:49.552Z,39.69
2022-12-11T12:16:53.116Z,39.61
2022-12-11T12:19:29.440Z,39.75
2022-12-11T12:21:56.090Z,39.84
2022-12-11T12:24:37.679Z,39.88
2022-12-11T12:27:53.139Z,39.90
2022-12-11T12:30:22.904Z,39.67
2022-12-11T12:33:12.896Z,39.23
2022-12-11T12:36:07.270Z,39.26
2022-12-11T12:38:55.471Z,39.16
2022-12-11T12:41:46.549Z,39.26
2022-12-11T12:44:16.487Z,38.94
2022-12-11T12:46:42.975Z,39.02
2022-12-11T12:49:26.000Z,38.65
2022-12-11T12:51:53.015Z,38.52
2022-12-11T12:54:20.104Z,38.49
2022-12-11T12:56:47.721Z,38.42
2022-12-11T12:59:25.507Z,38.18
2022-12-11T13:01:57.943Z,38.18
2022-12-11T13:04:55.554Z,38.03
2022-12-11T13:07:30.334Z,38.03
2022-12-11T13:10:00.949Z,37.68
2022-12-11T13:12:41.953Z,37.67
2022-12-11T13:15:40.827Z,37.13
2022-12-11T13:18:34.897Z,36.91
2022-12-11T13:21:03.205Z,37.00
2022-12-11T13:23:32.597Z,36.96
2022-12-11T13:26:02.159Z,37.03
2022-12-11T13:28:35.351Z,37.00
2022-12-11T13:31:07.425Z,37.04
2022-12-11T13:33:38.047Z,37.63
2022-12-11T13:36:31.798Z,37.48
2022-12-11T13:39:03.064Z,37.14
2022-12-11T13:41:30.886Z,37.08
2022-12-11T13:43:57.960Z,37.13
2022-12-11T13:46:30.931Z,36.81
2022-12-11T13:49:08.748Z,36.87
2022-12-11T13:51:37.630Z,36.86
2022-12-11T13:54:17.184Z,36.69
2022-12-11T13:56:54.499Z,36.74
2022-12-11T13:59:30.085Z,36.90
2022-12-11T14:02:21.789Z,36.47
2022-12-11T14:04:52.011Z,35.63
2022-12-11T14:07:26.713Z,35.59
2022-12-11T14:09:59.344Z,35.05
2022-12-11T14:12:25.871Z,34.93
2022-12-11T14:14:56.868Z,34.66
2022-12-11T14:17:29.752Z,34.74
2022-12-11T14:19:58.213Z,34.97
2022-12-11T14:22:27.593Z,35.20
2022-12-11T14:24:56.789Z,35.43
2022-12-11T14:27:24.503Z,35.52
2022-12-11T14:29:51.251Z,35.56
2022-12-11T14:32:32.590Z,35.09
2022-12-11T14:35:00.012Z,35.18
2022-12-11T14:37:28.549Z,35.12
2022-12-11T14:40:04.637Z,35.31
2022-12-11T14:42:35.007Z,35.15
2022-12-11T14:45:16.100Z,35.08
2022-12-11T14:47:43.902Z,35.26
2022-12-11T14:50:23.907Z,35.28
2022-12-11T14:52:56.809Z,35.31
2022-12-11T14:55:33.151Z,35.17
2022-12-11T14:58:03.513Z,34.92
2022-12-11T15:00:32.880Z,34.81
2022-12-11T15:03:09.967Z,34.92
2022-12-11T15:05:48.644Z,34.43
2022-12-11T15:08:24.606Z,34.80
2022-12-11T15:11:04.295Z,34.88
2022-12-11T15:13:32.007Z,34.75
2022-12-11T15:15:58.731Z,34.77
2022-12-11T15:18:37.144Z,35.08
2022-12-11T15:21:07.060Z,34.71
2022-12-11T15:23:46.607Z,35.00
2022-12-11T15:26:13.200Z,34.91
2022-12-11T15:28:40.169Z,34.58
2022-12-11T15:31:30.665Z,34.48
2022-12-11T15:33:57.405Z,34.82
2022-12-11T15:36:23.904Z,35.19
2022-12-11T15:38:50.485Z,35.14
2022-12-11T15:41:21.050Z,35.00
2022-12-11T15:43:47.930Z,35.52
2022-12-11T15:46:14.637Z,35.45
2022-12-11T15:48:41.196Z,35.29
2022-12-11T15:51:07.734Z,35.15
2022-12-11T15:53:34.310Z,35.12
2022-12-11T15:56:00.907Z,35.19
2022-12-11T15:58:27.890Z,35.39
2022-12-11T16:00:55.063Z,35.63
2022-12-11T16:03:23.184Z,35.31
2022-12-11T16:05:51.530Z,35.45
2022-12-11T16:08:21.155Z,35.85
2022-12-11T16:10:48.552Z,36.28
2022-12-11T16:13:15.426Z,36.58
2022-12-11T16:15:44.244Z,36.75
2022-12-11T16:18:16.353Z,37.16
2022-12-11T16:20:44.464Z,37.46
2022-12-11T16:23:11.959Z,37.78
2022-12-11T16:25:39.981Z,38.06
2022-12-11T16:28:07.837Z,38.29
2022-12-11T16:30:36.703Z,38.63
2022-12-11T16:33:11.844Z,38.64
2022-12-11T16:35:39.326Z,38.52
2022-12-11T16:38:05.815Z,38.48
2022-12-11T16:40:32.446Z,38.44
2022-12-11T16:42:59.095Z,38.44
2022-12-11T16:45:26.473Z,38.73
2022-12-11T16:47:53.300Z,38.58
2022-12-11T16:50:20.321Z,38.95
2022-12-11T16:52:47.419Z,39.16
2022-12-11T16:55:14.918Z,39.51
2022-12-11T16:57:42.103Z,40.05
2022-12-11T17:00:12.131Z,40.48
2022-12-11T17:02:38.959Z,40.87
2022-12-11T17:05:05.948Z,41.41
2022-12-11T17:07:33.311Z,41.77
2022-12-11T17:10:01.983Z,42.24
2022-12-11T17:12:28.817Z,42.78
2022-12-11T17:14:56.258Z,42.82
2022-12-11T17:17:22.819Z,43.14
2022-12-11T17:19:49.439Z,43.48
2022-12-11T17:22:16.064Z,43.55
2022-12-11T17:24:42.695Z,44.00
2022-12-11T17:27:09.262Z,44.09
2022-12-11T17:29:35.794Z,44.17
2022-12-11T17:32:03.331Z,44.48
2022-12-11T17:34:36.084Z,44.69
2022-12-11T17:37:04.826Z,44.90
2022-12-11T17:39:31.414Z,45.18
2022-12-11T17:41:57.920Z,45.43
2022-12-11T17:44:26.773Z,45.63
2022-12-11T17:46:53.808Z,45.75
2022-12-11T17:49:20.457Z,46.16
2022-12-11T17:51:48.036Z,46.12
2022-12-11T17:54:14.666Z,45.99
2022-12-11T17:56:41.436Z,45.70
2022-12-11T17:59:07.980Z,45.74
2022-12-11T18:01:34.757Z,45.45
2022-12-11T18:04:01.948Z,45.57
2022-12-11T18:06:29.557Z,45.60
2022-12-11T18:08:56.570Z,45.64
2022-12-11T18:11:23.904Z,45.55
2022-12-11T18:13:51.777Z,45.65
2022-12-11T18:16:21.299Z,45.84
2022-12-11T18:18:48.595Z,45.96
2022-12-11T18:21:18.075Z,46.17
2022-12-11T18:23:45.279Z,46.35
2022-12-11T18:26:14.433Z,46.43
2022-12-11T18:28:42.324Z,46.58
2022-12-11T18:31:09.915Z,46.72
2022-12-11T18:33:38.848Z,46.78
2022-12-11T18:36:06.121Z,46.75
2022-12-11T18:38:33.656Z,46.71
2022-12-11T18:41:07.361Z,46.93
2022-12-11T18:43:34.339Z,47.19
2022-12-11T18:46:00.866Z,47.40
2022-12-11T18:48:27.407Z,47.47
2022-12-11T18:50:54.335Z,47.65
2022-12-11T18:53:21.000Z,47.74
2022-12-11T18:55:48.961Z,47.77
2022-12-11T18:58:17.947Z,47.99
2022-12-11T19:00:45.303Z,47.91
2022-12-11T19:03:13.726Z,48.32
2022-12-11T19:05:42.563Z,48.04
2022-12-11T19:08:10.398Z,48.42
2022-12-11T19:10:44.769Z,48.44
2022-12-11T19:13:12.527Z,48.47
2022-12-11T19:15:43.360Z,48.56
2022-12-11T19:18:10.658Z,48.62
2022-12-11T19:20:55.672Z,48.55
2022-12-11T19:23:24.580Z,48.43
2022-12-11T19:25:51.429Z,48.35
2022-12-11T19:28:17.975Z,48.46
2022-12-11T19:30:46.438Z,48.18
2022-12-11T19:33:13.487Z,48.29
2022-12-11T19:35:40.382Z,48.22
2022-12-11T19:38:08.404Z,48.41
2022-12-11T19:40:42.571Z,48.33
2022-12-11T19:43:09.757Z,48.41
2022-12-11T19:45:36.738Z,48.73
2022-12-11T19:48:03.432Z,49.01
2022-12-11T19:50:30.114Z,49.25
2022-12-11T19:52:56.563Z,49.19
2022-12-11T19:55:23.178Z,49.22
2022-12-11T19:57:49.846Z,49.20
2022-12-11T20:00:16.755Z,49.12
2022-12-11T20:02:43.456Z,49.23
2022-12-11T20:05:11.294Z,49.31
2022-12-11T20:07:38.739Z,49.33
2022-12-11T20:10:05.925Z,49.36
2022-12-11T20:12:32.708Z,49.33
2022-12-11T20:14:59.224Z,49.43
2022-12-11T20:17:25.813Z,49.47
2022-12-11T20:19:53.893Z,49.52
2022-12-11T20:22:20.491Z,49.51
2022-12-11T20:24:46.991Z,49.80
2022-12-11T20:27:13.690Z,49.70
2022-12-11T20:29:40.420Z,49.72
2022-12-11T20:32:07.560Z,49.75
2022-12-11T20:34:34.263Z,49.74
2022-12-11T20:37:00.888Z,49.83
2022-12-11T20:39:27.500Z,49.75
2022-12-11T20:41:54.259Z,49.87
2022-12-11T20:44:20.898Z,49.80
2022-12-11T20:46:47.528Z,49.99
2022-12-11T20:49:14.123Z,50.04
2022-12-11T20:51:41.101Z,50.08
2022-12-11T20:54:07.996Z,50.19
2022-12-11T20:56:34.583Z,50.17
2022-12-11T20:59:01.156Z,50.25
2022-12-11T21:01:30.670Z,50.08
2022-12-11T21:03:57.867Z,50.20
2022-12-11T21:06:30.914Z,50.13
2022-12-11T21:09:03.932Z,50.16
2022-12-11T21:11:30.513Z,50.21
2022-12-11T21:13:57.134Z,50.15
2022-12-11T21:16:24.531Z,50.00
2022-12-11T21:18:51.923Z,50.37
2022-12-11T21:21:18.512Z,50.31
2022-12-11T21:23:45.244Z,50.21
2022-12-11T21:26:12.420Z,50.20
2022-12-11T21:28:39.100Z,50.38
2022-12-11T21:31:11.248Z,50.40
2022-12-11T21:33:37.681Z,50.38
2022-12-11T21:36:06.497Z,50.42
2022-12-11T21:38:33.529Z,50.53
2022-12-11T21:41:17.097Z,50.57
2022-12-11T21:46:32.840Z,50.82
2022-12-11T21:48:59.501Z,50.82
2022-12-11T21:51:35.696Z,50.87
2022-12-11T21:54:05.326Z,50.93
2022-12-11T21:56:33.057Z,50.68
2022-12-11T21:59:01.344Z,50.98
2022-12-11T22:01:35.126Z,50.86
2022-12-11T22:04:02.126Z,51.24
2022-12-11T22:06:28.726Z,50.95
2022-12-11T22:08:55.292Z,50.90
2022-12-11T22:11:26.140Z,50.89
2022-12-11T22:13:53.111Z,50.91
2022-12-11T22:16:19.905Z,50.90
2022-12-11T22:18:46.911Z,50.88
2022-12-11T22:21:14.040Z,50.94
2022-12-11T22:23:40.783Z,51.05
2022-12-11T22:26:09.006Z,51.17
2022-12-11T22:28:35.609Z,51.22
2022-12-11T22:31:02.142Z,51.27
2022-12-11T22:33:28.764Z,51.27
2022-12-11T22:35:59.540Z,51.20
2022-12-11T22:38:26.277Z,51.39
2022-12-11T22:40:53.955Z,51.33
2022-12-11T22:43:20.636Z,51.45
2022-12-11T22:45:47.265Z,51.45
2022-12-11T22:48:13.885Z,51.60
2022-12-11T22:50:40.981Z,51.70
2022-12-11T22:53:07.573Z,51.91
2022-12-11T22:55:34.449Z,51.88
2022-12-11T22:58:01.064Z,52.00
2022-12-11T23:00:27.871Z,52.06
2022-12-11T23:02:54.464Z,52.12
2022-12-11T23:05:21.066Z,52.05
2022-12-11T23:07:47.828Z,52.06
2022-12-11T23:10:14.503Z,52.16
2022-12-11T23:12:41.094Z,52.07
2022-12-11T23:15:08.243Z,52.13
2022-12-11T23:17:35.119Z,52.05
2022-12-11T23:20:03.874Z,52.28
2022-12-11T23:22:30.570Z,52.07
2022-12-11T23:24:57.168Z,52.39
2022-12-11T23:27:23.715Z,52.27
2022-12-11T23:29:50.209Z,52.22
2022-12-11T23:32:16.730Z,52.42
2022-12-11T23:34:43.253Z,52.28
2022-12-11T23:37:10.749Z,52.40
2022-12-11T23:39:37.354Z,52.37
2022-12-11T23:42:03.964Z,52.43
2022-12-11T23:44:30.484Z,52.54
2022-12-11T23:46:57.039Z,52.45
2022-12-11T23:49:23.547Z,52.56
2022-12-11T23:51:50.139Z,52.35
2022-12-11T23:54:16.647Z,52.44
2022-12-11T23:56:43.133Z,52.47
2022-12-11T23:59:12.499Z,52.48
